AAR8952 RKPC-RKSS
Flight info
| Callsign | AAR8952 |
|---|---|
| Flight time | 1h 14m |
| Altitude | 21000 |
| Route | KAMIT1W KAMIT Y722 OLMEN OLMEN2T |
| Aircraft | A321/M-SDE3FGHIRWY/LB1 |
Departure
| Time | 2025-09-06 04:00 |
|---|---|
| Airport | Jeju International Airport (RKPC) |
Arrival
| Time | 2025-09-06 05:15 |
|---|---|
| Airport | Gimpo International Airport (RKSS) |
| Time | Latitude | Longitude | Altitude | Speed | Heading |
|---|---|---|---|---|---|
| 2025-09-06 03:52 | 33.50877 | 126.49140 | 64 ft | 0 kts | 328° |
| 2025-09-06 03:55 | 33.50878 | 126.49139 | 89 ft | 1 kts | 328° |
| 2025-09-06 03:55 | 33.50925 | 126.49105 | 90 ft | 6 kts | 337° |
| 2025-09-06 03:56 | 33.51009 | 126.49204 | 89 ft | 12 kts | 57° |
| 2025-09-06 03:56 | 33.51054 | 126.49289 | 89 ft | 12 kts | 60° |
| 2025-09-06 03:56 | 33.51153 | 126.49488 | 91 ft | 15 kts | 56° |
| 2025-09-06 03:57 | 33.51268 | 126.49707 | 91 ft | 17 kts | 59° |
| 2025-09-06 03:57 | 33.51383 | 126.49814 | 87 ft | 5 kts | 344° |
| 2025-09-06 03:58 | 33.51431 | 126.49786 | 88 ft | 9 kts | 327° |
| 2025-09-06 03:58 | 33.51439 | 126.49664 | 91 ft | 8 kts | 239° |
| 2025-09-06 03:59 | 33.50409 | 126.47658 | 413 ft | 170 kts | 236° |
| 2025-09-06 03:59 | 33.49790 | 126.46438 | 1319 ft | 172 kts | 239° |
| 2025-09-06 04:00 | 33.48462 | 126.43867 | 2141 ft | 200 kts | 236° |
| 2025-09-06 04:00 | 33.46818 | 126.40708 | 2538 ft | 245 kts | 237° |
| 2025-09-06 04:01 | 33.45221 | 126.37009 | 3779 ft | 259 kts | 261° |
| 2025-09-06 04:02 | 33.47959 | 126.31690 | 5831 ft | 283 kts | 338° |
| 2025-09-06 04:02 | 33.51869 | 126.32197 | 7107 ft | 299 kts | 25° |
| 2025-09-06 04:02 | 33.53727 | 126.33335 | 7751 ft | 301 kts | 25° |
| 2025-09-06 04:03 | 33.59404 | 126.36807 | 9604 ft | 310 kts | 25° |
| 2025-09-06 04:04 | 33.62658 | 126.38778 | 10206 ft | 328 kts | 25° |
| 2025-09-06 04:04 | 33.66964 | 126.41393 | 10448 ft | 364 kts | 25° |
| 2025-09-06 04:05 | 33.71627 | 126.44228 | 10978 ft | 383 kts | 25° |
| 2025-09-06 04:05 | 33.76428 | 126.47141 | 11845 ft | 390 kts | 25° |
| 2025-09-06 04:05 | 33.78858 | 126.48618 | 12293 ft | 393 kts | 25° |
| 2025-09-06 04:06 | 33.83692 | 126.51564 | 13149 ft | 399 kts | 25° |
| 2025-09-06 04:06 | 33.88705 | 126.54629 | 13952 ft | 404 kts | 26° |
| 2025-09-06 04:07 | 33.96248 | 126.59245 | 15074 ft | 410 kts | 26° |
| 2025-09-06 04:08 | 34.01346 | 126.62362 | 15803 ft | 414 kts | 26° |
| 2025-09-06 04:08 | 34.06517 | 126.65543 | 16547 ft | 419 kts | 26° |
| 2025-09-06 04:09 | 34.11739 | 126.68758 | 17302 ft | 423 kts | 26° |
| 2025-09-06 04:09 | 34.14368 | 126.70374 | 17659 ft | 425 kts | 26° |
| 2025-09-06 04:10 | 34.22340 | 126.75265 | 18581 ft | 432 kts | 26° |
| 2025-09-06 04:10 | 34.25124 | 126.76641 | 18881 ft | 433 kts | 16° |
| 2025-09-06 04:10 | 34.31061 | 126.77769 | 19467 ft | 434 kts | 3° |
| 2025-09-06 04:11 | 34.40132 | 126.78723 | 20333 ft | 439 kts | 2° |
| 2025-09-06 04:12 | 34.46240 | 126.79377 | 20890 ft | 442 kts | 2° |
| 2025-09-06 04:12 | 34.52393 | 126.80021 | 21474 ft | 445 kts | 2° |
| 2025-09-06 04:13 | 34.58591 | 126.80678 | 22068 ft | 448 kts | 2° |
| 2025-09-06 04:13 | 34.64788 | 126.81350 | 22622 ft | 452 kts | 2° |
| 2025-09-06 04:13 | 34.67923 | 126.81694 | 22845 ft | 453 kts | 2° |
| 2025-09-06 04:14 | 34.74278 | 126.82383 | 22904 ft | 463 kts | 2° |
| 2025-09-06 04:14 | 34.80702 | 126.83066 | 22901 ft | 464 kts | 2° |
| 2025-09-06 04:15 | 34.90351 | 126.84103 | 22904 ft | 464 kts | 2° |
| 2025-09-06 04:16 | 34.96780 | 126.84792 | 22904 ft | 464 kts | 2° |
| 2025-09-06 04:16 | 35.03207 | 126.85484 | 22904 ft | 464 kts | 2° |
| 2025-09-06 04:17 | 35.09598 | 126.86172 | 22904 ft | 464 kts | 2° |
| 2025-09-06 04:17 | 35.12847 | 126.86523 | 22903 ft | 463 kts | 2° |
| 2025-09-06 04:17 | 35.19275 | 126.87226 | 22915 ft | 463 kts | 2° |
| 2025-09-06 04:18 | 35.25640 | 126.87931 | 22914 ft | 463 kts | 2° |
| 2025-09-06 04:18 | 35.32056 | 126.88624 | 22912 ft | 463 kts | 1° |
| 2025-09-06 04:19 | 35.41689 | 126.89662 | 22903 ft | 463 kts | 2° |
| 2025-09-06 04:20 | 35.48101 | 126.90368 | 22901 ft | 462 kts | 2° |
| 2025-09-06 04:20 | 35.54505 | 126.91076 | 22910 ft | 462 kts | 2° |
| 2025-09-06 04:20 | 35.57707 | 126.91431 | 22909 ft | 462 kts | 2° |
| 2025-09-06 04:21 | 35.67317 | 126.92472 | 22905 ft | 462 kts | 2° |
| 2025-09-06 04:21 | 35.70513 | 126.92816 | 22902 ft | 462 kts | 2° |
| 2025-09-06 04:22 | 35.76918 | 126.93512 | 22908 ft | 462 kts | 2° |
| 2025-09-06 04:22 | 35.83298 | 126.94220 | 22892 ft | 453 kts | 2° |
| 2025-09-06 04:23 | 35.92069 | 126.95621 | 22887 ft | 401 kts | 17° |
| 2025-09-06 04:24 | 35.96466 | 126.99335 | 22891 ft | 376 kts | 50° |
| 2025-09-06 04:24 | 35.97842 | 127.02001 | 22887 ft | 365 kts | 66° |
| 2025-09-06 04:24 | 35.98753 | 127.08042 | 22892 ft | 359 kts | 97° |
| 2025-09-06 04:25 | 35.97254 | 127.13784 | 22894 ft | 350 kts | 127° |
| 2025-09-06 04:26 | 35.91745 | 127.19042 | 22902 ft | 331 kts | 169° |
| 2025-09-06 04:26 | 35.87263 | 127.19627 | 22896 ft | 322 kts | 186° |
| 2025-09-06 04:26 | 35.85022 | 127.19487 | 22896 ft | 321 kts | 189° |
| 2025-09-06 04:27 | 35.78346 | 127.18711 | 22884 ft | 322 kts | 189° |
| 2025-09-06 04:28 | 35.73882 | 127.18239 | 22893 ft | 323 kts | 189° |
| 2025-09-06 04:28 | 35.69598 | 127.17070 | 22894 ft | 314 kts | 209° |
| 2025-09-06 04:29 | 35.66160 | 127.13910 | 22897 ft | 308 kts | 232° |
| 2025-09-06 04:29 | 35.64116 | 127.09356 | 22884 ft | 305 kts | 255° |
| 2025-09-06 04:29 | 35.63730 | 127.06794 | 22884 ft | 306 kts | 265° |
| 2025-09-06 04:30 | 35.64300 | 127.01620 | 22880 ft | 310 kts | 288° |
| 2025-09-06 04:30 | 35.66610 | 126.97113 | 22893 ft | 318 kts | 311° |
| 2025-09-06 04:31 | 35.72614 | 126.93534 | 22876 ft | 334 kts | 350° |
| 2025-09-06 04:31 | 35.74951 | 126.93422 | 22881 ft | 338 kts | 356° |
| 2025-09-06 04:32 | 35.81997 | 126.94080 | 22880 ft | 341 kts | 1° |
| 2025-09-06 04:33 | 35.86731 | 126.94640 | 22879 ft | 341 kts | 0° |
| 2025-09-06 04:33 | 35.91438 | 126.95456 | 22878 ft | 347 kts | 19° |
| 2025-09-06 04:33 | 35.93510 | 126.97002 | 22881 ft | 353 kts | 41° |
| 2025-09-06 04:34 | 35.95670 | 127.02311 | 22860 ft | 353 kts | 88° |
| 2025-09-06 04:35 | 35.92682 | 127.09984 | 22895 ft | 336 kts | 153° |
| 2025-09-06 04:35 | 35.88340 | 127.11342 | 22897 ft | 321 kts | 185° |
| 2025-09-06 04:36 | 35.83882 | 127.11022 | 22892 ft | 321 kts | 189° |
| 2025-09-06 04:36 | 35.79428 | 127.10512 | 22892 ft | 321 kts | 189° |
| 2025-09-06 04:37 | 35.74993 | 127.09893 | 22893 ft | 317 kts | 200° |
| 2025-09-06 04:37 | 35.73023 | 127.08771 | 22884 ft | 310 kts | 218° |
| 2025-09-06 04:38 | 35.70076 | 127.02133 | 22882 ft | 305 kts | 269° |
| 2025-09-06 04:38 | 35.71327 | 126.97192 | 22882 ft | 312 kts | 303° |
| 2025-09-06 04:38 | 35.72866 | 126.95289 | 22881 ft | 318 kts | 321° |
| 2025-09-06 04:39 | 35.79473 | 126.93821 | 22867 ft | 336 kts | 359° |
| 2025-09-06 04:40 | 35.84152 | 126.94297 | 22864 ft | 338 kts | 1° |
| 2025-09-06 04:40 | 35.88854 | 126.94823 | 22866 ft | 339 kts | 0° |
| 2025-09-06 04:40 | 35.91186 | 126.95326 | 22861 ft | 345 kts | 17° |
| 2025-09-06 04:41 | 35.94810 | 126.99081 | 22863 ft | 354 kts | 62° |
| 2025-09-06 04:41 | 35.95444 | 127.04946 | 22893 ft | 352 kts | 108° |
| 2025-09-06 04:42 | 35.92779 | 127.09710 | 22890 ft | 336 kts | 152° |
| 2025-09-06 04:42 | 35.88466 | 127.11152 | 22894 ft | 320 kts | 185° |
| 2025-09-06 04:43 | 35.81793 | 127.10590 | 22893 ft | 320 kts | 189° |
| 2025-09-06 04:44 | 35.77350 | 127.10094 | 22893 ft | 321 kts | 189° |
| 2025-09-06 04:44 | 35.73181 | 127.08629 | 22882 ft | 309 kts | 218° |
| 2025-09-06 04:45 | 35.70619 | 127.04583 | 22878 ft | 302 kts | 252° |
| 2025-09-06 04:45 | 35.70524 | 126.99493 | 22868 ft | 305 kts | 286° |
| 2025-09-06 04:45 | 35.71464 | 126.97145 | 22873 ft | 310 kts | 303° |
| 2025-09-06 04:46 | 35.74991 | 126.94064 | 22868 ft | 325 kts | 341° |
| 2025-09-06 04:46 | 35.79575 | 126.93829 | 22862 ft | 335 kts | 359° |
| 2025-09-06 04:47 | 35.86581 | 126.94572 | 22862 ft | 338 kts | 1° |
| 2025-09-06 04:48 | 35.91249 | 126.95351 | 22862 ft | 344 kts | 17° |
| 2025-09-06 04:48 | 35.94847 | 126.99191 | 22863 ft | 353 kts | 64° |
| 2025-09-06 04:48 | 35.95558 | 127.02068 | 22858 ft | 352 kts | 87° |
| 2025-09-06 04:49 | 35.94774 | 127.06893 | 22891 ft | 347 kts | 124° |
| 2025-09-06 04:49 | 35.91274 | 127.10587 | 22891 ft | 329 kts | 167° |
| 2025-09-06 04:50 | 35.86837 | 127.11023 | 22890 ft | 320 kts | 188° |
| 2025-09-06 04:50 | 35.82443 | 127.10363 | 22885 ft | 313 kts | 208° |
| 2025-09-06 04:51 | 35.79395 | 127.06837 | 22893 ft | 305 kts | 244° |
| 2025-09-06 04:51 | 35.78933 | 127.01563 | 22895 ft | 333 kts | 286° |
| 2025-09-06 04:52 | 35.82129 | 126.97237 | 22894 ft | 372 kts | 331° |
| 2025-09-06 04:52 | 35.87539 | 126.96355 | 22403 ft | 422 kts | 2° |
| 2025-09-06 04:53 | 35.93560 | 126.97206 | 21917 ft | 442 kts | 4° |
| 2025-09-06 04:54 | 36.02728 | 126.98645 | 21185 ft | 441 kts | 4° |
| 2025-09-06 04:54 | 36.08800 | 126.99555 | 20699 ft | 437 kts | 4° |
| 2025-09-06 04:54 | 36.11818 | 126.99998 | 20476 ft | 437 kts | 4° |
| 2025-09-06 04:55 | 36.20852 | 127.01314 | 19782 ft | 434 kts | 4° |
| 2025-09-06 04:56 | 36.26824 | 127.02192 | 19325 ft | 431 kts | 4° |
| 2025-09-06 04:56 | 36.32777 | 127.03072 | 18876 ft | 430 kts | 4° |
| 2025-09-06 04:57 | 36.38713 | 127.03945 | 18436 ft | 428 kts | 4° |
| 2025-09-06 04:57 | 36.41633 | 127.04380 | 18221 ft | 427 kts | 4° |
| 2025-09-06 04:58 | 36.50482 | 127.05703 | 17480 ft | 423 kts | 4° |
| 2025-09-06 04:58 | 36.53354 | 127.06129 | 17230 ft | 421 kts | 4° |
| 2025-09-06 04:59 | 36.61963 | 127.07412 | 16483 ft | 409 kts | 4° |
| 2025-09-06 04:59 | 36.67586 | 127.08245 | 16752 ft | 400 kts | 5° |
| 2025-09-06 05:00 | 36.73055 | 127.09068 | 16249 ft | 394 kts | 5° |
| 2025-09-06 05:00 | 36.78430 | 127.09879 | 15352 ft | 384 kts | 4° |
| 2025-09-06 05:01 | 36.83684 | 127.10663 | 14274 ft | 377 kts | 3° |
| 2025-09-06 05:01 | 36.88816 | 127.11431 | 13353 ft | 368 kts | 3° |
| 2025-09-06 05:01 | 36.91342 | 127.11810 | 12821 ft | 364 kts | 4° |
| 2025-09-06 05:02 | 36.96325 | 127.12562 | 11745 ft | 357 kts | 4° |
| 2025-09-06 05:02 | 37.01221 | 127.13297 | 10747 ft | 349 kts | 4° |
| 2025-09-06 05:03 | 37.08002 | 127.14333 | 10130 ft | 306 kts | 3° |
| 2025-09-06 05:04 | 37.12283 | 127.14973 | 9800 ft | 310 kts | 2° |
| 2025-09-06 05:04 | 37.16594 | 127.15625 | 9542 ft | 309 kts | 2° |
| 2025-09-06 05:05 | 37.20730 | 127.16257 | 9201 ft | 290 kts | 2° |
| 2025-09-06 05:05 | 37.26278 | 127.15405 | 8270 ft | 253 kts | 323° |
| 2025-09-06 05:06 | 37.28886 | 127.12658 | 7416 ft | 247 kts | 317° |
| 2025-09-06 05:06 | 37.31352 | 127.09962 | 6777 ft | 223 kts | 310° |
| 2025-09-06 05:07 | 37.34601 | 127.05914 | 5541 ft | 209 kts | 310° |
| 2025-09-06 05:08 | 37.36584 | 127.03446 | 5000 ft | 194 kts | 310° |
| 2025-09-06 05:08 | 37.38437 | 127.01137 | 4501 ft | 183 kts | 310° |
| 2025-09-06 05:09 | 37.40248 | 126.98876 | 4018 ft | 183 kts | 310° |
| 2025-09-06 05:09 | 37.41148 | 126.97755 | 3778 ft | 182 kts | 310° |
| 2025-09-06 05:09 | 37.42929 | 126.95535 | 3318 ft | 178 kts | 310° |
| 2025-09-06 05:10 | 37.44544 | 126.93520 | 2850 ft | 152 kts | 310° |
| 2025-09-06 05:11 | 37.46717 | 126.90802 | 2177 ft | 145 kts | 306° |
| 2025-09-06 05:11 | 37.48147 | 126.89014 | 1802 ft | 142 kts | 307° |
| 2025-09-06 05:12 | 37.49566 | 126.87236 | 1440 ft | 149 kts | 305° |
| 2025-09-06 05:12 | 37.51010 | 126.85430 | 1056 ft | 144 kts | 310° |
| 2025-09-06 05:13 | 37.52442 | 126.83636 | 711 ft | 145 kts | 312° |
| 2025-09-06 05:13 | 37.53165 | 126.82729 | 526 ft | 144 kts | 308° |
| 2025-09-06 05:13 | 37.54566 | 126.80990 | 186 ft | 139 kts | 307° |
| 2025-09-06 05:14 | 37.55986 | 126.79186 | 60 ft | 26 kts | 316° |
| 2025-09-06 05:15 | 37.56290 | 126.78981 | 59 ft | 17 kts | 360° |
| 2025-09-06 05:15 | 37.56234 | 126.79175 | 61 ft | 19 kts | 136° |
| 2025-09-06 05:16 | 37.56033 | 126.79427 | 64 ft | 21 kts | 134° |
| 2025-09-06 05:16 | 37.55918 | 126.79770 | 67 ft | 23 kts | 97° |
| 2025-09-06 05:16 | 37.55913 | 126.79924 | 59 ft | 11 kts | 60° |
| 2025-09-06 05:17 | 37.55990 | 126.80023 | 67 ft | 0 kts | 45° |